sensor_id;sensor_type;location;lat;lon;timestamp;pressure;altitude;pressure_sealevel;temperature;humidity
25510;BME280;13413;52.336;21.200;2023-04-26T00:01:04;99625.02;;;9.71;76.36
25510;BME280;13413;52.336;21.200;2023-04-26T00:03:57;99624.61;;;9.68;76.33
25510;BME280;13413;52.336;21.200;2023-04-26T00:06:51;99621.27;;;9.68;76.46
25510;BME280;13413;52.336;21.200;2023-04-26T00:09:46;99625.05;;;9.67;76.46
25510;BME280;13413;52.336;21.200;2023-04-26T00:12:38;99622.23;;;9.66;76.48
25510;BME280;13413;52.336;21.200;2023-04-26T00:21:18;99642.54;;;9.71;76.76
25510;BME280;13413;52.336;21.200;2023-04-26T00:24:12;99648.30;;;9.72;76.53
25510;BME280;13413;52.336;21.200;2023-04-26T00:27:06;99654.48;;;9.68;76.39
25510;BME280;13413;52.336;21.200;2023-04-26T00:30:00;99664.35;;;9.62;76.20
25510;BME280;13413;52.336;21.200;2023-04-26T00:32:55;99669.49;;;9.56;76.11
25510;BME280;13413;52.336;21.200;2023-04-26T00:35:49;99676.29;;;9.53;76.08
25510;BME280;13413;52.336;21.200;2023-04-26T00:38:42;99683.89;;;9.51;75.99
25510;BME280;13413;52.336;21.200;2023-04-26T00:41:37;99683.00;;;9.46;75.84
25510;BME280;13413;52.336;21.200;2023-04-26T00:44:30;99686.41;;;9.41;75.74
25510;BME280;13413;52.336;21.200;2023-04-26T00:47:26;99687.30;;;9.35;75.83
25510;BME280;13413;52.336;21.200;2023-04-26T00:50:22;99691.83;;;9.29;75.91
25510;BME280;13413;52.336;21.200;2023-04-26T00:53:16;99695.86;;;9.29;76.04
25510;BME280;13413;52.336;21.200;2023-04-26T00:56:11;99703.22;;;9.25;75.63
25510;BME280;13413;52.336;21.200;2023-04-26T00:59:04;99712.43;;;9.15;75.13
25510;BME280;13413;52.336;21.200;2023-04-26T01:01:57;99715.20;;;9.06;75.24
25510;BME280;13413;52.336;21.200;2023-04-26T01:04:51;99714.70;;;9.02;75.29
25510;BME280;13413;52.336;21.200;2023-04-26T01:07:46;99712.22;;;9.03;75.22
25510;BME280;13413;52.336;21.200;2023-04-26T01:10:41;99716.16;;;9.00;75.14
25510;BME280;13413;52.336;21.200;2023-04-26T01:13:36;99709.41;;;8.92;74.60
25510;BME280;13413;52.336;21.200;2023-04-26T01:16:31;99703.56;;;8.84;74.92
25510;BME280;13413;52.336;21.200;2023-04-26T01:19:24;99690.84;;;8.74;74.63
25510;BME280;13413;52.336;21.200;2023-04-26T01:22:18;99687.85;;;8.65;74.63
25510;BME280;13413;52.336;21.200;2023-04-26T01:25:13;99687.04;;;8.60;74.94
25510;BME280;13413;52.336;21.200;2023-04-26T01:28:07;99693.88;;;8.64;75.03
25510;BME280;13413;52.336;21.200;2023-04-26T01:33:56;99711.30;;;8.72;75.34
25510;BME280;13413;52.336;21.200;2023-04-26T01:36:51;99720.27;;;8.79;75.22
25510;BME280;13413;52.336;21.200;2023-04-26T01:39:45;99718.14;;;8.80;75.16
25510;BME280;13413;52.336;21.200;2023-04-26T01:42:39;99717.45;;;8.80;75.03
25510;BME280;13413;52.336;21.200;2023-04-26T01:45:33;99724.98;;;8.83;75.16
25510;BME280;13413;52.336;21.200;2023-04-26T01:48:27;99723.61;;;8.85;74.97
25510;BME280;13413;52.336;21.200;2023-04-26T01:51:21;99729.25;;;8.85;74.97
25510;BME280;13413;52.336;21.200;2023-04-26T01:54:14;99731.17;;;8.79;74.71
25510;BME280;13413;52.336;21.200;2023-04-26T01:57:25;99738.30;;;8.77;74.99
25510;BME280;13413;52.336;21.200;2023-04-26T02:00:20;99741.38;;;8.77;74.85
25510;BME280;13413;52.336;21.200;2023-04-26T02:03:15;99743.27;;;8.77;74.78
25510;BME280;13413;52.336;21.200;2023-04-26T02:06:09;99741.77;;;8.75;74.84
25510;BME280;13413;52.336;21.200;2023-04-26T02:09:02;99739.30;;;8.76;74.87
25510;BME280;13413;52.336;21.200;2023-04-26T02:15:10;99743.27;;;8.69;74.63
25510;BME280;13413;52.336;21.200;2023-04-26T02:18:04;99742.63;;;8.66;74.59
25510;BME280;13413;52.336;21.200;2023-04-26T02:20:58;99741.42;;;8.64;74.72
25510;BME280;13413;52.336;21.200;2023-04-26T02:23:53;99740.90;;;8.59;74.50
25510;BME280;13413;52.336;21.200;2023-04-26T02:26:46;99741.58;;;8.51;74.51
25510;BME280;13413;52.336;21.200;2023-04-26T02:29:40;99742.92;;;8.47;74.53
25510;BME280;13413;52.336;21.200;2023-04-26T02:32:33;99738.55;;;8.46;74.56
25510;BME280;13413;52.336;21.200;2023-04-26T02:42:33;99736.13;;;8.49;74.65
25510;BME280;13413;52.336;21.200;2023-04-26T02:45:27;99739.16;;;8.55;74.47
25510;BME280;13413;52.336;21.200;2023-04-26T02:48:21;99740.08;;;8.62;74.49
25510;BME280;13413;52.336;21.200;2023-04-26T02:51:14;99745.10;;;8.63;74.47
25510;BME280;13413;52.336;21.200;2023-04-26T02:54:28;99744.60;;;8.52;74.21
25510;BME280;13413;52.336;21.200;2023-04-26T02:57:22;99741.24;;;8.47;74.42
25510;BME280;13413;52.336;21.200;2023-04-26T03:03:11;99736.98;;;8.51;74.77
25510;BME280;13413;52.336;21.200;2023-04-26T03:06:07;99734.27;;;8.57;74.74
25510;BME280;13413;52.336;21.200;2023-04-26T03:09:02;99738.24;;;8.57;74.56
25510;BME280;13413;52.336;21.200;2023-04-26T03:11:56;99738.27;;;8.50;74.61
25510;BME280;13413;52.336;21.200;2023-04-26T03:14:50;99738.94;;;8.47;74.59
25510;BME280;13413;52.336;21.200;2023-04-26T03:17:43;99737.66;;;8.51;74.71
25510;BME280;13413;52.336;21.200;2023-04-26T03:20:38;99739.01;;;8.51;74.82
25510;BME280;13413;52.336;21.200;2023-04-26T03:23:33;99746.73;;;8.49;74.73
25510;BME280;13413;52.336;21.200;2023-04-26T03:26:26;99745.52;;;8.47;74.88
25510;BME280;13413;52.336;21.200;2023-04-26T03:29:21;99747.44;;;8.49;75.01
25510;BME280;13413;52.336;21.200;2023-04-26T03:32:15;99755.06;;;8.51;74.99
25510;BME280;13413;52.336;21.200;2023-04-26T03:35:10;99760.38;;;8.53;75.00
25510;BME280;13413;52.336;21.200;2023-04-26T03:38:04;99761.20;;;8.48;74.87
25510;BME280;13413;52.336;21.200;2023-04-26T03:40:58;99756.55;;;8.38;74.89
25510;BME280;13413;52.336;21.200;2023-04-26T03:43:53;99754.16;;;8.36;75.23
25510;BME280;13413;52.336;21.200;2023-04-26T03:46:47;99753.73;;;8.37;75.25
25510;BME280;13413;52.336;21.200;2023-04-26T03:49:40;99750.70;;;8.39;75.31
25510;BME280;13413;52.336;21.200;2023-04-26T03:52:34;99753.55;;;8.45;75.41
25510;BME280;13413;52.336;21.200;2023-04-26T03:55:28;99757.17;;;8.45;75.32
25510;BME280;13413;52.336;21.200;2023-04-26T03:58:23;99757.38;;;8.45;75.10
25510;BME280;13413;52.336;21.200;2023-04-26T04:01:16;99755.48;;;8.42;75.14
25510;BME280;13413;52.336;21.200;2023-04-26T04:04:11;99757.27;;;8.42;75.05
25510;BME280;13413;52.336;21.200;2023-04-26T04:07:05;99757.77;;;8.40;75.15
25510;BME280;13413;52.336;21.200;2023-04-26T04:09:59;99759.39;;;8.43;75.00
25510;BME280;13413;52.336;21.200;2023-04-26T04:12:53;99757.08;;;8.43;75.12
25510;BME280;13413;52.336;21.200;2023-04-26T04:15:46;99755.73;;;8.45;74.93
25510;BME280;13413;52.336;21.200;2023-04-26T04:18:40;99763.34;;;8.45;75.06
25510;BME280;13413;52.336;21.200;2023-04-26T04:21:35;99762.10;;;8.42;75.01
25510;BME280;13413;52.336;21.200;2023-04-26T04:24:29;99763.76;;;8.37;75.07
25510;BME280;13413;52.336;21.200;2023-04-26T04:27:22;99766.13;;;8.30;75.14
25510;BME280;13413;52.336;21.200;2023-04-26T04:30:17;99769.62;;;8.25;75.18
25510;BME280;13413;52.336;21.200;2023-04-26T04:33:11;99772.11;;;8.18;74.94
25510;BME280;13413;52.336;21.200;2023-04-26T04:36:06;99769.14;;;8.19;74.96
25510;BME280;13413;52.336;21.200;2023-04-26T04:39:00;99767.46;;;8.15;74.88
25510;BME280;13413;52.336;21.200;2023-04-26T04:41:55;99771.45;;;8.13;74.38
25510;BME280;13413;52.336;21.200;2023-04-26T04:44:48;99772.20;;;8.08;74.63
25510;BME280;13413;52.336;21.200;2023-04-26T04:47:43;99773.66;;;8.09;74.18
25510;BME280;13413;52.336;21.200;2023-04-26T04:50:38;99773.83;;;8.06;74.01
25510;BME280;13413;52.336;21.200;2023-04-26T04:53:31;99778.56;;;8.04;74.20
25510;BME280;13413;52.336;21.200;2023-04-26T05:01:59;99785.74;;;8.06;74.17
25510;BME280;13413;52.336;21.200;2023-04-26T05:04:53;99787.95;;;8.13;73.83
25510;BME280;13413;52.336;21.200;2023-04-26T05:07:54;99791.84;;;8.21;73.89
25510;BME280;13413;52.336;21.200;2023-04-26T05:10:48;99793.14;;;8.19;73.41
25510;BME280;13413;52.336;21.200;2023-04-26T05:13:42;99797.11;;;8.13;73.33
25510;BME280;13413;52.336;21.200;2023-04-26T05:16:36;99795.91;;;8.14;73.21
25510;BME280;13413;52.336;21.200;2023-04-26T05:19:30;99799.40;;;8.15;73.29
25510;BME280;13413;52.336;21.200;2023-04-26T05:22:25;99806.35;;;8.13;73.13
25510;BME280;13413;52.336;21.200;2023-04-26T05:25:19;99808.42;;;8.14;73.47
25510;BME280;13413;52.336;21.200;2023-04-26T05:28:13;99810.08;;;8.12;72.46
25510;BME280;13413;52.336;21.200;2023-04-26T05:31:07;99814.27;;;8.14;73.06
25510;BME280;13413;52.336;21.200;2023-04-26T05:34:02;99814.46;;;8.14;72.50
25510;BME280;13413;52.336;21.200;2023-04-26T05:36:56;99819.39;;;8.11;72.50
25510;BME280;13413;52.336;21.200;2023-04-26T05:39:50;99819.64;;;8.17;72.25
25510;BME280;13413;52.336;21.200;2023-04-26T05:45:40;99820.16;;;8.18;71.93
25510;BME280;13413;52.336;21.200;2023-04-26T05:48:42;99826.27;;;8.18;71.68
25510;BME280;13413;52.336;21.200;2023-04-26T05:51:36;99827.22;;;8.22;71.42
25510;BME280;13413;52.336;21.200;2023-04-26T05:54:30;99829.61;;;8.22;71.43
25510;BME280;13413;52.336;21.200;2023-04-26T05:57:24;99832.54;;;8.27;71.76
25510;BME280;13413;52.336;21.200;2023-04-26T06:00:20;99833.98;;;8.29;70.79
25510;BME280;13413;52.336;21.200;2023-04-26T06:03:14;99836.05;;;8.21;70.39
25510;BME280;13413;52.336;21.200;2023-04-26T06:06:08;99842.22;;;8.17;70.80
25510;BME280;13413;52.336;21.200;2023-04-26T06:09:03;99847.02;;;8.26;70.60
25510;BME280;13413;52.336;21.200;2023-04-26T06:11:57;99850.16;;;8.25;69.94
25510;BME280;13413;52.336;21.200;2023-04-26T06:17:45;99850.83;;;8.12;70.18
25510;BME280;13413;52.336;21.200;2023-04-26T06:20:40;99854.65;;;8.18;70.51
25510;BME280;13413;52.336;21.200;2023-04-26T06:23:34;99857.23;;;8.19;69.89
25510;BME280;13413;52.336;21.200;2023-04-26T06:26:28;99853.75;;;8.23;70.52
25510;BME280;13413;52.336;21.200;2023-04-26T06:29:22;99851.23;;;8.34;70.11
25510;BME280;13413;52.336;21.200;2023-04-26T06:32:16;99851.71;;;8.29;69.44
25510;BME280;13413;52.336;21.200;2023-04-26T06:35:11;99849.89;;;8.34;69.89
25510;BME280;13413;52.336;21.200;2023-04-26T06:38:05;99848.53;;;8.41;69.55
25510;BME280;13413;52.336;21.200;2023-04-26T06:40:59;99846.54;;;8.37;68.99
25510;BME280;13413;52.336;21.200;2023-04-26T06:43:53;99851.22;;;8.44;69.81
25510;BME280;13413;52.336;21.200;2023-04-26T06:46:47;99851.44;;;8.51;68.79
25510;BME280;13413;52.336;21.200;2023-04-26T06:49:41;99845.49;;;8.57;69.48
25510;BME280;13413;52.336;21.200;2023-04-26T06:52:35;99852.92;;;8.73;69.55
25510;BME280;13413;52.336;21.200;2023-04-26T06:55:29;99848.82;;;8.83;68.18
25510;BME280;13413;52.336;21.200;2023-04-26T06:58:23;99849.63;;;8.90;68.55
25510;BME280;13413;52.336;21.200;2023-04-26T07:01:17;99850.52;;;8.99;67.10
25510;BME280;13413;52.336;21.200;2023-04-26T07:04:11;99857.77;;;8.98;66.58
25510;BME280;13413;52.336;21.200;2023-04-26T07:07:05;99854.94;;;9.15;67.19
25510;BME280;13413;52.336;21.200;2023-04-26T07:12:53;99862.00;;;9.41;66.79
25510;BME280;13413;52.336;21.200;2023-04-26T07:27:02;99866.77;;;9.68;62.57
25510;BME280;13413;52.336;21.200;2023-04-26T07:29:58;99867.63;;;9.81;62.90
25510;BME280;13413;52.336;21.200;2023-04-26T07:32:52;99864.63;;;9.93;62.72
25510;BME280;13413;52.336;21.200;2023-04-26T07:35:47;99866.60;;;9.99;61.53
25510;BME280;13413;52.336;21.200;2023-04-26T07:38:46;99865.58;;;10.03;60.67
25510;BME280;13413;52.336;21.200;2023-04-26T07:41:40;99867.45;;;10.11;61.63
25510;BME280;13413;52.336;21.200;2023-04-26T07:44:34;99866.35;;;10.22;59.78
25510;BME280;13413;52.336;21.200;2023-04-26T07:47:28;99865.88;;;10.27;59.74
25510;BME280;13413;52.336;21.200;2023-04-26T07:50:22;99870.12;;;10.40;59.57
25510;BME280;13413;52.336;21.200;2023-04-26T07:53:15;99871.98;;;10.45;58.52
25510;BME280;13413;52.336;21.200;2023-04-26T07:56:09;99875.08;;;10.56;59.42
25510;BME280;13413;52.336;21.200;2023-04-26T07:59:03;99872.11;;;10.64;57.53
25510;BME280;13413;52.336;21.200;2023-04-26T08:01:56;99882.27;;;10.56;57.35
25510;BME280;13413;52.336;21.200;2023-04-26T08:04:51;99882.31;;;10.43;56.01
25510;BME280;13413;52.336;21.200;2023-04-26T08:07:45;99883.38;;;10.38;55.72
25510;BME280;13413;52.336;21.200;2023-04-26T08:10:40;99888.26;;;10.45;55.27
25510;BME280;13413;52.336;21.200;2023-04-26T08:13:35;99888.27;;;10.58;54.30
25510;BME280;13413;52.336;21.200;2023-04-26T08:16:29;99892.20;;;10.65;53.64
25510;BME280;13413;52.336;21.200;2023-04-26T08:19:23;99893.44;;;10.71;54.68
25510;BME280;13413;52.336;21.200;2023-04-26T08:22:16;99895.56;;;10.71;54.44
25510;BME280;13413;52.336;21.200;2023-04-26T08:25:11;99893.96;;;10.60;54.36
25510;BME280;13413;52.336;21.200;2023-04-26T08:28:05;99893.75;;;10.56;54.74
25510;BME280;13413;52.336;21.200;2023-04-26T08:31:00;99898.48;;;10.41;53.41
25510;BME280;13413;52.336;21.200;2023-04-26T08:33:54;99907.59;;;10.36;53.21
25510;BME280;13413;52.336;21.200;2023-04-26T08:36:48;99902.83;;;10.45;53.16
25510;BME280;13413;52.336;21.200;2023-04-26T08:39:42;99901.48;;;10.46;53.13
25510;BME280;13413;52.336;21.200;2023-04-26T08:42:39;99898.60;;;10.47;52.72
25510;BME280;13413;52.336;21.200;2023-04-26T08:45:35;99902.04;;;10.38;52.89
25510;BME280;13413;52.336;21.200;2023-04-26T08:48:33;99901.59;;;10.49;53.60
25510;BME280;13413;52.336;21.200;2023-04-26T08:51:29;99906.77;;;10.63;52.82
25510;BME280;13413;52.336;21.200;2023-04-26T08:54:26;99902.73;;;10.63;53.02
25510;BME280;13413;52.336;21.200;2023-04-26T08:57:35;99909.16;;;10.58;52.69
25510;BME280;13413;52.336;21.200;2023-04-26T09:00:29;99910.38;;;10.48;53.05
25510;BME280;13413;52.336;21.200;2023-04-26T09:03:24;99906.54;;;10.78;53.77
25510;BME280;13413;52.336;21.200;2023-04-26T09:09:18;99911.48;;;11.68;52.57
25510;BME280;13413;52.336;21.200;2023-04-26T09:12:16;99918.92;;;11.52;51.33
25510;BME280;13413;52.336;21.200;2023-04-26T09:15:12;99920.77;;;11.25;51.46
25510;BME280;13413;52.336;21.200;2023-04-26T09:18:20;99929.59;;;11.04;50.29
25510;BME280;13413;52.336;21.200;2023-04-26T09:21:15;99930.16;;;10.74;50.95
25510;BME280;13413;52.336;21.200;2023-04-26T09:24:09;99933.55;;;10.64;50.55
25510;BME280;13413;52.336;21.200;2023-04-26T09:27:03;99938.21;;;10.54;51.07
25510;BME280;13413;52.336;21.200;2023-04-26T09:30:04;99942.48;;;10.50;51.32
25510;BME280;13413;52.336;21.200;2023-04-26T09:33:00;99943.73;;;10.45;51.34
25510;BME280;13413;52.336;21.200;2023-04-26T09:35:53;99944.10;;;10.40;51.14
25510;BME280;13413;52.336;21.200;2023-04-26T09:38:46;99948.75;;;10.36;50.69
25510;BME280;13413;52.336;21.200;2023-04-26T09:47:36;99929.63;;;11.15;48.61
25510;BME280;13413;52.336;21.200;2023-04-26T09:50:34;99927.82;;;11.60;49.28
25510;BME280;13413;52.336;21.200;2023-04-26T09:53:29;99929.83;;;12.03;48.09
25510;BME280;13413;52.336;21.200;2023-04-26T09:56:23;99936.23;;;11.67;45.84
25510;BME280;13413;52.336;21.200;2023-04-26T09:59:17;99942.30;;;11.19;45.17
25510;BME280;13413;52.336;21.200;2023-04-26T10:02:17;99942.30;;;10.97;45.17
25510;BME280;13413;52.336;21.200;2023-04-26T10:05:12;99942.70;;;10.94;46.33
25510;BME280;13413;52.336;21.200;2023-04-26T10:08:06;99942.44;;;10.93;46.43
25510;BME280;13413;52.336;21.200;2023-04-26T10:11:00;99942.47;;;10.90;46.04
25510;BME280;13413;52.336;21.200;2023-04-26T10:13:56;99945.80;;;10.72;45.35
25510;BME280;13413;52.336;21.200;2023-04-26T10:16:50;99942.13;;;10.72;46.35
25510;BME280;13413;52.336;21.200;2023-04-26T10:19:45;99940.77;;;10.93;46.52
25510;BME280;13413;52.336;21.200;2023-04-26T10:22:45;99941.77;;;11.19;45.93
25510;BME280;13413;52.336;21.200;2023-04-26T10:25:43;99943.71;;;11.07;45.71
25510;BME280;13413;52.336;21.200;2023-04-26T10:28:55;99949.40;;;10.97;45.54
25510;BME280;13413;52.336;21.200;2023-04-26T10:32:09;99954.80;;;10.95;46.31
25510;BME280;13413;52.336;21.200;2023-04-26T10:35:20;99954.77;;;10.99;46.26
25510;BME280;13413;52.336;21.200;2023-04-26T10:38:15;99960.51;;;11.12;45.83
25510;BME280;13413;52.336;21.200;2023-04-26T10:41:30;99960.16;;;11.03;44.65
25510;BME280;13413;52.336;21.200;2023-04-26T10:44:41;99961.89;;;11.05;44.36
25510;BME280;13413;52.336;21.200;2023-04-26T10:47:36;99961.39;;;11.15;43.75
25510;BME280;13413;52.336;21.200;2023-04-26T10:50:30;99958.63;;;11.17;43.81
25510;BME280;13413;52.336;21.200;2023-04-26T10:53:24;99962.41;;;11.19;44.35
25510;BME280;13413;52.336;21.200;2023-04-26T10:56:52;99965.21;;;11.11;43.76
25510;BME280;13413;52.336;21.200;2023-04-26T11:03:22;99973.84;;;10.96;44.49
25510;BME280;13413;52.336;21.200;2023-04-26T11:06:16;99980.77;;;10.84;43.63
25510;BME280;13413;52.336;21.200;2023-04-26T11:09:33;99972.29;;;10.92;44.06
25510;BME280;13413;52.336;21.200;2023-04-26T11:12:28;99971.11;;;11.00;43.58
25510;BME280;13413;52.336;21.200;2023-04-26T11:15:24;99968.33;;;11.19;43.96
25510;BME280;13413;52.336;21.200;2023-04-26T11:18:20;99967.98;;;11.77;44.42
25510;BME280;13413;52.336;21.200;2023-04-26T11:21:15;99968.57;;;11.90;42.82
25510;BME280;13413;52.336;21.200;2023-04-26T11:24:09;99973.95;;;11.76;43.03
25510;BME280;13413;52.336;21.200;2023-04-26T11:27:08;99980.49;;;11.61;42.35
25510;BME280;13413;52.336;21.200;2023-04-26T11:30:05;99988.17;;;11.30;42.88
25510;BME280;13413;52.336;21.200;2023-04-26T11:33:01;99994.46;;;11.22;43.73
25510;BME280;13413;52.336;21.200;2023-04-26T11:35:56;99993.95;;;11.18;44.23
25510;BME280;13413;52.336;21.200;2023-04-26T11:42:06;99999.48;;;11.14;44.21
25510;BME280;13413;52.336;21.200;2023-04-26T11:45:01;100000.59;;;11.24;44.38
25510;BME280;13413;52.336;21.200;2023-04-26T11:47:54;100000.52;;;11.50;44.41
25510;BME280;13413;52.336;21.200;2023-04-26T11:50:51;99999.58;;;11.76;44.44
25510;BME280;13413;52.336;21.200;2023-04-26T11:53:46;99998.48;;;11.82;44.09
25510;BME280;13413;52.336;21.200;2023-04-26T11:56:40;100004.48;;;11.72;43.98
25510;BME280;13413;52.336;21.200;2023-04-26T11:59:32;100011.90;;;11.58;43.81
25510;BME280;13413;52.336;21.200;2023-04-26T12:08:00;100016.34;;;11.01;44.46
25510;BME280;13413;52.336;21.200;2023-04-26T12:11:01;100018.04;;;10.88;44.58
25510;BME280;13413;52.336;21.200;2023-04-26T12:13:58;100026.40;;;10.84;44.67
25510;BME280;13413;52.336;21.200;2023-04-26T12:16:55;100022.20;;;10.84;44.78
25510;BME280;13413;52.336;21.200;2023-04-26T12:19:51;100036.52;;;10.85;44.79
25510;BME280;13413;52.336;21.200;2023-04-26T12:22:57;100035.50;;;10.85;44.66
25510;BME280;13413;52.336;21.200;2023-04-26T12:29:02;100031.90;;;10.84;44.59
25510;BME280;13413;52.336;21.200;2023-04-26T12:31:57;100038.26;;;10.74;44.69
25510;BME280;13413;52.336;21.200;2023-04-26T12:34:50;100040.08;;;10.69;44.30
25510;BME280;13413;52.336;21.200;2023-04-26T12:37:45;100044.21;;;10.55;44.06
25510;BME280;13413;52.336;21.200;2023-04-26T12:40:39;100049.08;;;10.62;45.08
25510;BME280;13413;52.336;21.200;2023-04-26T12:43:33;100051.06;;;10.76;44.38
25510;BME280;13413;52.336;21.200;2023-04-26T12:46:27;100047.50;;;10.72;44.07
25510;BME280;13413;52.336;21.200;2023-04-26T12:49:20;100047.09;;;10.74;43.88
25510;BME280;13413;52.336;21.200;2023-04-26T12:52:15;100051.69;;;10.69;44.15
25510;BME280;13413;52.336;21.200;2023-04-26T12:55:10;100047.64;;;10.72;44.25
25510;BME280;13413;52.336;21.200;2023-04-26T12:58:05;100057.09;;;10.72;44.49
25510;BME280;13413;52.336;21.200;2023-04-26T13:00:59;100061.05;;;10.68;44.38
25510;BME280;13413;52.336;21.200;2023-04-26T13:03:52;100062.65;;;10.66;44.62
25510;BME280;13413;52.336;21.200;2023-04-26T13:06:47;100063.63;;;10.68;44.46
25510;BME280;13413;52.336;21.200;2023-04-26T13:09:41;100065.32;;;10.71;44.43
25510;BME280;13413;52.336;21.200;2023-04-26T13:12:35;100063.83;;;10.71;43.72
25510;BME280;13413;52.336;21.200;2023-04-26T13:15:30;100072.73;;;10.78;43.26
25510;BME280;13413;52.336;21.200;2023-04-26T13:18:24;100069.41;;;10.89;43.05
25510;BME280;13413;52.336;21.200;2023-04-26T13:21:18;100062.40;;;11.00;43.21
25510;BME280;13413;52.336;21.200;2023-04-26T13:24:12;100060.32;;;11.13;43.23
25510;BME280;13413;52.336;21.200;2023-04-26T13:29:59;100058.34;;;11.26;43.27
25510;BME280;13413;52.336;21.200;2023-04-26T13:32:53;100065.83;;;11.27;43.24
25510;BME280;13413;52.336;21.200;2023-04-26T13:35:47;100060.34;;;11.26;43.10
25510;BME280;13413;52.336;21.200;2023-04-26T13:38:41;100074.24;;;11.14;42.28
25510;BME280;13413;52.336;21.200;2023-04-26T13:41:35;100082.24;;;10.94;42.92
25510;BME280;13413;52.336;21.200;2023-04-26T13:44:30;100087.57;;;10.83;43.09
25510;BME280;13413;52.336;21.200;2023-04-26T13:47:24;100091.77;;;10.70;42.99
25510;BME280;13413;52.336;21.200;2023-04-26T13:50:19;100097.84;;;10.59;42.69
25510;BME280;13413;52.336;21.200;2023-04-26T13:53:13;100095.71;;;10.59;43.03
25510;BME280;13413;52.336;21.200;2023-04-26T13:56:07;100094.34;;;10.71;43.24
25510;BME280;13413;52.336;21.200;2023-04-26T13:59:02;100095.64;;;10.82;43.21
25510;BME280;13413;52.336;21.200;2023-04-26T14:01:56;100100.90;;;10.88;43.31
25510;BME280;13413;52.336;21.200;2023-04-26T14:04:50;100101.52;;;10.92;42.65
25510;BME280;13413;52.336;21.200;2023-04-26T14:07:44;100106.58;;;10.91;43.03
25510;BME280;13413;52.336;21.200;2023-04-26T14:10:38;100104.88;;;10.92;43.17
25510;BME280;13413;52.336;21.200;2023-04-26T14:13:32;100106.73;;;10.97;43.27
25510;BME280;13413;52.336;21.200;2023-04-26T14:16:26;100110.48;;;10.93;43.05
25510;BME280;13413;52.336;21.200;2023-04-26T14:19:20;100114.96;;;10.89;43.20
25510;BME280;13413;52.336;21.200;2023-04-26T14:30:43;100124.30;;;10.92;43.84
25510;BME280;13413;52.336;21.200;2023-04-26T14:33:37;100124.11;;;10.95;43.85
25510;BME280;13413;52.336;21.200;2023-04-26T14:36:33;100127.20;;;10.97;43.72
25510;BME280;13413;52.336;21.200;2023-04-26T14:39:27;100133.52;;;10.96;43.98
25510;BME280;13413;52.336;21.200;2023-04-26T14:42:22;100136.55;;;10.97;43.52
25510;BME280;13413;52.336;21.200;2023-04-26T14:45:16;100137.90;;;10.89;43.62
25510;BME280;13413;52.336;21.200;2023-04-26T14:48:11;100140.88;;;10.81;43.62
25510;BME280;13413;52.336;21.200;2023-04-26T14:51:06;100143.54;;;10.72;44.05
25510;BME280;13413;52.336;21.200;2023-04-26T14:54:00;100143.48;;;10.75;44.41
25510;BME280;13413;52.336;21.200;2023-04-26T14:56:54;100141.48;;;10.77;44.43
25510;BME280;13413;52.336;21.200;2023-04-26T14:59:48;100147.29;;;10.75;44.68
25510;BME280;13413;52.336;21.200;2023-04-26T15:02:43;100150.87;;;10.74;44.83
25510;BME280;13413;52.336;21.200;2023-04-26T15:05:38;100153.88;;;10.68;44.95
25510;BME280;13413;52.336;21.200;2023-04-26T15:08:33;100156.19;;;10.62;45.29
25510;BME280;13413;52.336;21.200;2023-04-26T15:11:25;100157.96;;;10.57;45.17
25510;BME280;13413;52.336;21.200;2023-04-26T15:14:20;100160.75;;;10.56;45.41
25510;BME280;13413;52.336;21.200;2023-04-26T15:17:14;100160.44;;;10.57;45.13
25510;BME280;13413;52.336;21.200;2023-04-26T15:20:09;100157.74;;;10.52;45.52
25510;BME280;13413;52.336;21.200;2023-04-26T15:23:03;100158.86;;;10.50;45.63
25510;BME280;13413;52.336;21.200;2023-04-26T15:26:01;100160.95;;;10.53;45.73
25510;BME280;13413;52.336;21.200;2023-04-26T15:28:56;100163.47;;;10.50;45.44
25510;BME280;13413;52.336;21.200;2023-04-26T15:31:52;100160.42;;;10.50;45.78
25510;BME280;13413;52.336;21.200;2023-04-26T15:34:46;100164.36;;;10.54;45.82
25510;BME280;13413;52.336;21.200;2023-04-26T15:37:40;100158.27;;;10.50;45.78
25510;BME280;13413;52.336;21.200;2023-04-26T15:40:34;100157.90;;;10.46;45.63
25510;BME280;13413;52.336;21.200;2023-04-26T15:43:28;100160.20;;;10.40;45.84
25510;BME280;13413;52.336;21.200;2023-04-26T15:46:24;100159.20;;;10.37;45.96
25510;BME280;13413;52.336;21.200;2023-04-26T15:49:18;100161.31;;;10.31;46.06
25510;BME280;13413;52.336;21.200;2023-04-26T15:52:12;100157.52;;;10.30;46.25
25510;BME280;13413;52.336;21.200;2023-04-26T15:55:07;100160.76;;;10.27;46.33
25510;BME280;13413;52.336;21.200;2023-04-26T15:57:59;100164.03;;;10.22;46.38
25510;BME280;13413;52.336;21.200;2023-04-26T16:00:54;100160.80;;;10.20;46.88
25510;BME280;13413;52.336;21.200;2023-04-26T16:03:48;100158.35;;;10.18;46.93
25510;BME280;13413;52.336;21.200;2023-04-26T16:06:42;100158.58;;;10.13;46.91
25510;BME280;13413;52.336;21.200;2023-04-26T16:09:39;100162.31;;;10.10;47.06
25510;BME280;13413;52.336;21.200;2023-04-26T16:15:28;100166.70;;;10.02;46.73
25510;BME280;13413;52.336;21.200;2023-04-26T16:18:22;100167.77;;;10.01;46.59
25510;BME280;13413;52.336;21.200;2023-04-26T16:21:16;100169.58;;;9.97;46.70
25510;BME280;13413;52.336;21.200;2023-04-26T16:24:10;100169.33;;;10.01;46.80
25510;BME280;13413;52.336;21.200;2023-04-26T16:27:04;100174.88;;;9.97;46.70
25510;BME280;13413;52.336;21.200;2023-04-26T16:29:58;100179.75;;;9.94;46.57
25510;BME280;13413;52.336;21.200;2023-04-26T16:32:51;100182.08;;;9.87;46.60
25510;BME280;13413;52.336;21.200;2023-04-26T16:35:50;100183.48;;;9.86;46.93
25510;BME280;13413;52.336;21.200;2023-04-26T16:38:44;100185.31;;;9.87;46.72
25510;BME280;13413;52.336;21.200;2023-04-26T16:47:31;100196.27;;;9.96;47.18
25510;BME280;13413;52.336;21.200;2023-04-26T16:50:28;100192.54;;;9.91;47.29